createdAt,value
2018-12-13T00:02:11.405Z,92.80
2018-12-13T00:04:39.201Z,93.23
2018-12-13T00:07:06.799Z,93.13
2018-12-13T00:09:34.420Z,93.02
2018-12-13T00:12:02.767Z,92.96
2018-12-13T00:14:30.394Z,92.87
2018-12-13T00:16:58.005Z,92.81
2018-12-13T00:19:25.659Z,92.99
2018-12-13T00:21:53.662Z,93.61
2018-12-13T00:24:21.346Z,93.82
2018-12-13T00:26:49.289Z,93.43
2018-12-13T00:29:17.159Z,93.06
2018-12-13T00:31:44.721Z,92.88
2018-12-13T00:34:12.293Z,93.08
2018-12-13T00:36:39.957Z,93.46
2018-12-13T00:39:07.617Z,92.78
2018-12-13T00:41:35.150Z,92.26
2018-12-13T00:44:02.884Z,93.18
2018-12-13T00:46:30.498Z,93.83
2018-12-13T00:48:58.048Z,94.71
2018-12-13T00:51:25.718Z,94.60
2018-12-13T00:53:53.253Z,94.83
2018-12-13T00:56:20.789Z,95.30
2018-12-13T00:58:48.411Z,94.95
2018-12-13T01:01:16.144Z,94.92
2018-12-13T01:03:43.757Z,94.29
2018-12-13T01:06:11.420Z,94.31
2018-12-13T01:08:39.079Z,94.54
2018-12-13T01:11:06.653Z,94.37
2018-12-13T01:13:34.305Z,93.91
2018-12-13T01:16:01.877Z,93.72
2018-12-13T01:18:29.418Z,94.46
2018-12-13T01:20:57.131Z,94.85
2018-12-13T01:23:24.857Z,95.03
2018-12-13T01:25:52.565Z,94.94
2018-12-13T01:28:20.196Z,94.78
2018-12-13T01:30:48.408Z,94.67
2018-12-13T01:33:15.917Z,94.57
2018-12-13T01:35:43.463Z,95.05
2018-12-13T01:38:11.071Z,95.53
2018-12-13T01:40:38.667Z,95.60
2018-12-13T01:43:06.251Z,95.34
2018-12-13T01:45:34.289Z,94.20
2018-12-13T01:48:01.847Z,94.32
2018-12-13T01:50:29.642Z,94.16
2018-12-13T01:52:57.576Z,95.02
2018-12-13T01:55:25.427Z,94.89
2018-12-13T01:57:52.998Z,94.06
2018-12-13T02:00:20.565Z,94.53
2018-12-13T02:02:48.050Z,94.41
2018-12-13T02:05:15.818Z,94.49
2018-12-13T02:07:43.322Z,94.26
2018-12-13T02:10:11.169Z,94.65
2018-12-13T02:12:38.771Z,93.57
2018-12-13T02:15:06.576Z,95.25
2018-12-13T02:17:34.370Z,95.31
2018-12-13T02:20:02.060Z,95.55
2018-12-13T02:22:29.673Z,94.95
2018-12-13T02:24:57.302Z,95.76
2018-12-13T02:27:24.871Z,96.21
2018-12-13T02:29:52.433Z,96.06
2018-12-13T02:32:20.017Z,95.57
2018-12-13T02:34:47.638Z,96.05
2018-12-13T02:37:15.173Z,95.92
2018-12-13T02:39:42.858Z,96.75
2018-12-13T02:42:10.662Z,97.20
2018-12-13T02:44:38.305Z,97.47
2018-12-13T02:47:05.899Z,96.24
2018-12-13T02:49:33.449Z,96.82
2018-12-13T02:52:01.101Z,96.14
2018-12-13T02:54:28.741Z,96.06
2018-12-13T02:56:56.343Z,95.24
2018-12-13T02:59:23.865Z,94.50
2018-12-13T03:01:51.791Z,94.04
2018-12-13T03:04:19.328Z,94.00
2018-12-13T03:06:46.863Z,93.27
2018-12-13T03:09:14.484Z,92.96
2018-12-13T03:11:42.077Z,92.04
2018-12-13T03:14:09.666Z,93.55
2018-12-13T03:16:37.313Z,93.20
2018-12-13T03:19:04.829Z,92.38
2018-12-13T03:21:32.522Z,92.68
2018-12-13T03:24:00.278Z,91.41
2018-12-13T03:26:27.862Z,91.23
2018-12-13T03:28:55.396Z,91.27
2018-12-13T03:31:22.980Z,91.02
2018-12-13T03:33:50.719Z,91.57
2018-12-13T03:36:18.249Z,91.24
2018-12-13T03:38:45.835Z,91.59
2018-12-13T03:41:13.355Z,91.23
2018-12-13T03:43:40.977Z,91.58
2018-12-13T03:46:08.459Z,91.19
2018-12-13T03:48:35.995Z,91.17
2018-12-13T03:51:04.207Z,91.41
2018-12-13T03:53:31.822Z,90.99
2018-12-13T03:55:59.405Z,89.66
2018-12-13T03:58:26.941Z,89.09
2018-12-13T04:00:54.430Z,88.29
2018-12-13T04:03:22.086Z,88.69
2018-12-13T04:05:49.713Z,87.12
2018-12-13T04:08:17.278Z,86.79
2018-12-13T04:10:45.029Z,86.60
2018-12-13T04:13:12.646Z,85.93
2018-12-13T04:15:40.260Z,86.37
2018-12-13T04:18:07.850Z,86.55
2018-12-13T04:20:35.449Z,85.54
2018-12-13T04:23:02.982Z,85.06
2018-12-13T04:25:30.544Z,83.95
2018-12-13T04:27:58.210Z,83.69
2018-12-13T04:30:25.838Z,83.99
2018-12-13T04:32:53.332Z,83.29
2018-12-13T04:35:20.983Z,83.70
2018-12-13T04:37:48.585Z,83.18
2018-12-13T04:40:16.100Z,82.67
2018-12-13T04:42:43.705Z,82.95
2018-12-13T04:45:11.442Z,82.25
2018-12-13T04:47:39.021Z,82.04
2018-12-13T04:50:06.858Z,82.21
2018-12-13T04:52:34.490Z,81.51
2018-12-13T04:55:02.274Z,82.57
2018-12-13T04:57:29.766Z,82.40
2018-12-13T04:59:57.496Z,82.43
2018-12-13T05:02:25.226Z,81.94
2018-12-13T05:04:52.881Z,81.77
2018-12-13T05:07:20.469Z,82.48
2018-12-13T05:09:48.824Z,82.78
2018-12-13T05:12:17.110Z,83.54
2018-12-13T05:14:44.886Z,83.09
2018-12-13T05:17:12.531Z,83.99
2018-12-13T05:19:40.069Z,84.71
2018-12-13T05:22:07.737Z,84.28
2018-12-13T05:24:35.351Z,84.64
2018-12-13T05:27:02.953Z,84.28
2018-12-13T05:29:30.635Z,84.73
2018-12-13T05:31:58.482Z,84.30
2018-12-13T05:34:26.041Z,83.82
2018-12-13T05:36:53.579Z,83.84
2018-12-13T05:39:21.095Z,85.07
2018-12-13T05:41:48.749Z,84.28
2018-12-13T05:44:20.874Z,84.13
2018-12-13T05:46:48.452Z,83.65
2018-12-13T05:49:16.404Z,83.06
2018-12-13T05:51:43.999Z,84.06
2018-12-13T05:54:11.545Z,83.39
2018-12-13T05:56:39.337Z,83.02
2018-12-13T05:59:06.883Z,82.60
2018-12-13T06:01:34.382Z,82.61
2018-12-13T06:04:01.964Z,82.45
2018-12-13T06:06:29.547Z,81.95
2018-12-13T06:08:57.127Z,81.94
2018-12-13T06:11:24.996Z,81.59
2018-12-13T06:13:52.552Z,80.89
2018-12-13T06:16:20.131Z,81.05
2018-12-13T06:18:47.881Z,81.17
2018-12-13T06:21:15.410Z,80.52
2018-12-13T06:23:43.003Z,80.59
2018-12-13T06:26:11.386Z,79.70
2018-12-13T06:28:38.940Z,79.79
2018-12-13T06:31:06.498Z,80.26
2018-12-13T06:33:34.063Z,80.57
2018-12-13T06:36:01.593Z,79.80
2018-12-13T06:38:29.164Z,79.89
2018-12-13T06:43:41.219Z,79.88
2018-12-13T06:46:08.780Z,80.40
2018-12-13T06:48:36.312Z,79.62
2018-12-13T06:51:03.994Z,80.32
2018-12-13T06:53:31.529Z,79.42
2018-12-13T06:55:59.256Z,80.04
2018-12-13T06:58:26.829Z,80.09
2018-12-13T07:00:54.600Z,80.20
2018-12-13T07:03:22.277Z,79.92
2018-12-13T07:05:50.051Z,80.17
2018-12-13T07:08:17.790Z,80.18
2018-12-13T07:10:45.318Z,79.58
2018-12-13T07:13:12.893Z,79.85
2018-12-13T07:15:40.477Z,80.43
2018-12-13T07:18:08.452Z,79.03
2018-12-13T07:20:36.078Z,79.01
2018-12-13T07:23:03.596Z,77.86
2018-12-13T07:25:31.505Z,77.61
2018-12-13T07:27:59.473Z,77.51
2018-12-13T07:30:27.206Z,77.00
2018-12-13T07:32:55.010Z,76.12
2018-12-13T07:35:22.714Z,76.21
2018-12-13T07:37:50.396Z,76.26
2018-12-13T07:40:17.928Z,76.13
2018-12-13T07:42:45.573Z,75.75
2018-12-13T07:45:13.137Z,75.95
2018-12-13T07:47:40.839Z,76.08
2018-12-13T07:50:08.639Z,76.18
2018-12-13T07:52:36.225Z,75.88
2018-12-13T07:55:04.121Z,75.54
2018-12-13T07:57:31.741Z,76.06
2018-12-13T07:59:59.369Z,76.03
2018-12-13T08:02:26.927Z,74.99
2018-12-13T08:04:54.555Z,74.66
2018-12-13T08:07:22.273Z,75.74
2018-12-13T08:09:49.945Z,75.07
2018-12-13T08:12:17.632Z,74.96
2018-12-13T08:14:45.140Z,74.82
2018-12-13T08:17:12.720Z,74.24
2018-12-13T08:19:40.565Z,73.97
2018-12-13T08:22:08.422Z,73.88
2018-12-13T08:24:36.055Z,73.54
2018-12-13T08:27:03.701Z,72.99
2018-12-13T08:29:31.242Z,73.10
2018-12-13T08:31:58.878Z,72.72
2018-12-13T08:34:26.594Z,72.19
2018-12-13T08:36:54.142Z,72.05
2018-12-13T08:39:21.805Z,72.13
2018-12-13T08:41:49.434Z,72.34
2018-12-13T08:44:16.998Z,72.24
2018-12-13T08:46:44.513Z,71.96
2018-12-13T08:49:12.360Z,71.17
2018-12-13T08:51:39.881Z,71.02
2018-12-13T08:54:07.433Z,70.73
2018-12-13T08:56:34.982Z,70.48
2018-12-13T08:59:02.527Z,70.00
2018-12-13T09:01:30.326Z,69.83
2018-12-13T09:03:57.940Z,69.58
2018-12-13T09:06:25.629Z,70.32
2018-12-13T09:08:53.269Z,69.69
2018-12-13T09:11:21.004Z,69.98
2018-12-13T09:13:48.521Z,70.84
2018-12-13T09:16:16.114Z,70.50
2018-12-13T09:18:50.310Z,69.85
2018-12-13T09:21:18.070Z,69.54
2018-12-13T09:23:45.789Z,69.55
2018-12-13T09:26:13.445Z,68.71
2018-12-13T09:28:41.120Z,68.35
2018-12-13T09:31:08.666Z,68.03
2018-12-13T09:33:37.259Z,67.65
2018-12-13T09:36:04.765Z,67.17
2018-12-13T09:38:32.545Z,68.17
2018-12-13T09:41:00.183Z,67.66
2018-12-13T09:43:27.886Z,66.67
2018-12-13T09:45:55.577Z,66.10
2018-12-13T09:48:23.397Z,66.48
2018-12-13T09:50:51.141Z,67.19
2018-12-13T09:53:18.741Z,67.09
2018-12-13T09:55:46.412Z,66.89
2018-12-13T09:58:14.091Z,66.86
2018-12-13T10:00:41.593Z,66.67
2018-12-13T10:03:09.359Z,66.39
2018-12-13T10:05:36.845Z,66.46
2018-12-13T10:08:04.436Z,66.61
2018-12-13T10:10:31.949Z,65.55
2018-12-13T10:12:59.471Z,65.20
2018-12-13T10:15:32.040Z,65.26
2018-12-13T10:17:56.773Z,66.88
2018-12-13T10:20:24.446Z,67.12
2018-12-13T10:22:51.993Z,67.22
2018-12-13T10:25:19.539Z,66.45
2018-12-13T10:27:47.101Z,66.18
2018-12-13T10:30:14.741Z,65.78
2018-12-13T10:32:42.315Z,65.20
2018-12-13T10:35:11.519Z,65.55
2018-12-13T10:37:39.414Z,65.75
2018-12-13T10:40:07.299Z,66.06
2018-12-13T10:42:34.994Z,65.86
2018-12-13T10:45:02.693Z,65.56
2018-12-13T10:47:30.200Z,65.39
2018-12-13T10:49:57.898Z,65.42
2018-12-13T10:52:25.476Z,64.38
2018-12-13T10:54:53.587Z,64.35
2018-12-13T10:57:21.234Z,65.17
2018-12-13T10:59:48.778Z,64.90
2018-12-13T11:02:21.736Z,65.35
2018-12-13T11:04:49.370Z,65.98
2018-12-13T11:07:16.974Z,66.01
2018-12-13T11:09:44.636Z,65.22
2018-12-13T11:12:12.391Z,65.18
2018-12-13T11:14:39.980Z,63.87
2018-12-13T11:17:07.548Z,64.04
2018-12-13T11:19:35.153Z,64.30
2018-12-13T11:22:02.753Z,64.25
2018-12-13T11:24:30.553Z,64.51
2018-12-13T11:27:02.583Z,63.80
2018-12-13T11:29:35.790Z,63.65
2018-12-13T11:32:03.458Z,64.16
2018-12-13T11:34:30.945Z,64.74
2018-12-13T11:36:58.545Z,64.24
2018-12-13T11:39:26.204Z,64.74
2018-12-13T11:41:53.767Z,64.99
2018-12-13T11:44:21.484Z,65.54
2018-12-13T11:46:49.310Z,65.65
2018-12-13T11:49:16.785Z,66.66
2018-12-13T11:51:44.318Z,67.93
2018-12-13T11:54:17.195Z,68.15
2018-12-13T11:56:45.191Z,68.95
2018-12-13T11:59:12.822Z,69.63
2018-12-13T12:01:40.294Z,68.98
2018-12-13T12:04:07.815Z,70.04
2018-12-13T12:06:35.489Z,70.51
2018-12-13T12:09:04.213Z,70.46
2018-12-13T12:11:31.847Z,70.84
2018-12-13T12:13:59.431Z,69.84
2018-12-13T12:16:26.939Z,70.02
2018-12-13T12:18:54.450Z,70.43
2018-12-13T12:21:22.002Z,69.35
2018-12-13T12:23:49.500Z,69.62
2018-12-13T12:26:17.093Z,68.90
2018-12-13T12:28:44.661Z,69.51
2018-12-13T12:31:12.423Z,69.20
2018-12-13T12:33:39.917Z,69.05
2018-12-13T12:36:07.569Z,69.93
2018-12-13T12:38:35.092Z,69.94
2018-12-13T12:41:02.683Z,69.70
2018-12-13T12:43:30.188Z,70.05
2018-12-13T12:45:57.903Z,70.20
2018-12-13T12:48:25.441Z,70.50
2018-12-13T12:50:55.135Z,69.09
2018-12-13T12:53:22.841Z,69.87
2018-12-13T12:55:50.391Z,69.01
2018-12-13T12:58:18.080Z,70.36
2018-12-13T13:00:45.610Z,69.70
2018-12-13T13:03:13.260Z,69.67
2018-12-13T13:05:40.865Z,68.47
2018-12-13T13:08:08.367Z,68.84
2018-12-13T13:10:35.945Z,69.03
2018-12-13T13:13:03.617Z,70.36
2018-12-13T13:15:31.280Z,69.54
2018-12-13T13:17:58.823Z,69.57
2018-12-13T13:20:26.396Z,69.37
2018-12-13T13:22:53.879Z,69.60
2018-12-13T13:25:21.558Z,68.70
2018-12-13T13:27:49.110Z,69.22
2018-12-13T13:30:16.728Z,68.37
2018-12-13T13:32:44.223Z,68.13
2018-12-13T13:35:11.941Z,68.83
2018-12-13T13:37:39.451Z,68.86
2018-12-13T13:40:07.099Z,69.15
2018-12-13T13:42:34.832Z,69.49
2018-12-13T13:45:03.054Z,70.48
2018-12-13T13:47:30.563Z,71.32
2018-12-13T13:49:58.150Z,71.14
2018-12-13T13:52:25.726Z,70.93
2018-12-13T13:54:53.382Z,71.78
2018-12-13T13:57:20.943Z,71.53
2018-12-13T13:59:48.458Z,72.02
2018-12-13T14:02:16.030Z,72.89
2018-12-13T14:04:43.706Z,72.20
2018-12-13T14:07:11.241Z,71.83
2018-12-13T14:09:38.923Z,72.27
2018-12-13T14:12:06.435Z,72.11
2018-12-13T14:14:33.934Z,72.59
2018-12-13T14:17:01.537Z,71.90
2018-12-13T14:19:29.155Z,71.67
2018-12-13T14:21:56.653Z,72.55
2018-12-13T14:24:24.340Z,72.66
2018-12-13T14:26:52.045Z,71.95
2018-12-13T14:29:19.604Z,71.93
2018-12-13T14:31:47.113Z,72.13
2018-12-13T14:34:14.750Z,71.46
2018-12-13T14:36:42.381Z,71.83
2018-12-13T14:39:09.951Z,72.09
2018-12-13T14:41:37.524Z,70.95
2018-12-13T14:44:05.241Z,71.25
2018-12-13T14:46:32.737Z,71.87
2018-12-13T14:49:00.462Z,71.52
2018-12-13T14:51:28.900Z,70.99
2018-12-13T14:53:56.522Z,71.88
2018-12-13T14:56:24.185Z,72.12
2018-12-13T14:58:51.716Z,71.29
2018-12-13T15:01:19.269Z,71.39
2018-12-13T15:03:46.971Z,70.94
2018-12-13T15:06:14.623Z,70.86
2018-12-13T15:08:42.200Z,71.35
2018-12-13T15:11:09.734Z,70.51
2018-12-13T15:13:37.391Z,70.47
2018-12-13T15:16:06.517Z,71.23
2018-12-13T15:18:34.087Z,71.20
2018-12-13T15:21:01.631Z,70.52
2018-12-13T15:23:29.218Z,70.83
2018-12-13T15:25:57.156Z,70.44
2018-12-13T15:28:24.801Z,70.70
2018-12-13T15:30:52.478Z,70.69
2018-12-13T15:33:20.502Z,70.30
2018-12-13T15:35:48.152Z,70.31
2018-12-13T15:38:15.650Z,70.41
2018-12-13T15:40:43.342Z,70.49
2018-12-13T15:43:10.853Z,70.40
2018-12-13T15:45:38.557Z,72.29
2018-12-13T15:48:06.130Z,70.79
2018-12-13T15:50:33.785Z,70.18
2018-12-13T15:53:01.349Z,69.90
2018-12-13T15:55:28.856Z,69.75
2018-12-13T15:57:56.469Z,69.86
2018-12-13T16:00:24.247Z,70.91
2018-12-13T16:05:37.607Z,70.04
2018-12-13T16:08:05.245Z,70.71
2018-12-13T16:10:33.072Z,69.80
2018-12-13T16:13:00.669Z,69.86
2018-12-13T16:15:28.213Z,69.13
2018-12-13T16:17:55.785Z,70.28
2018-12-13T16:20:23.677Z,69.88
2018-12-13T16:22:51.334Z,69.09
2018-12-13T16:25:18.895Z,69.32
2018-12-13T16:27:46.537Z,69.97
2018-12-13T16:30:14.616Z,69.44
2018-12-13T16:32:42.255Z,69.06
2018-12-13T16:35:09.816Z,68.52
2018-12-13T16:37:37.519Z,68.40
2018-12-13T16:40:10.376Z,68.70
2018-12-13T16:42:34.941Z,69.51
2018-12-13T16:45:02.725Z,69.00
2018-12-13T16:47:30.297Z,68.34
2018-12-13T16:52:43.109Z,67.05
2018-12-13T16:55:10.829Z,68.52
2018-12-13T16:57:38.751Z,68.07
2018-12-13T17:00:06.968Z,68.43
2018-12-13T17:02:34.472Z,67.81
2018-12-13T17:05:03.500Z,68.26
2018-12-13T17:07:31.339Z,68.22
2018-12-13T17:09:58.875Z,67.55
2018-12-13T17:12:26.473Z,68.00
2018-12-13T17:14:54.137Z,68.37
2018-12-13T17:17:21.749Z,67.99
2018-12-13T17:19:49.271Z,67.77
2018-12-13T17:22:16.810Z,67.45
2018-12-13T17:24:44.475Z,67.81
2018-12-13T17:27:12.000Z,68.17
2018-12-13T17:29:39.674Z,67.88
2018-12-13T17:32:07.176Z,67.58
2018-12-13T17:34:34.890Z,67.72
2018-12-13T17:37:02.407Z,68.40
2018-12-13T17:39:30.193Z,67.40
2018-12-13T17:41:57.754Z,67.91
2018-12-13T17:44:25.294Z,67.85
2018-12-13T17:46:52.975Z,67.88
2018-12-13T17:49:20.634Z,67.26
2018-12-13T17:51:48.141Z,66.77
2018-12-13T17:54:15.676Z,67.16
2018-12-13T17:56:43.366Z,68.36
2018-12-13T17:59:10.891Z,67.94
2018-12-13T18:01:38.894Z,67.96
2018-12-13T18:04:06.767Z,67.54
2018-12-13T18:06:34.675Z,68.11
2018-12-13T18:09:02.446Z,67.67
2018-12-13T18:11:30.143Z,67.29
2018-12-13T18:13:57.836Z,67.40
2018-12-13T18:16:25.482Z,67.50
2018-12-13T18:18:53.148Z,67.16
2018-12-13T18:21:20.891Z,67.17
2018-12-13T18:23:48.586Z,67.41
2018-12-13T18:26:17.339Z,67.95
2018-12-13T18:28:44.889Z,67.16
2018-12-13T18:31:12.484Z,67.05
2018-12-13T18:33:40.253Z,67.75
2018-12-13T18:36:07.777Z,67.66
2018-12-13T18:38:35.549Z,67.79
2018-12-13T18:41:03.252Z,67.77
2018-12-13T18:43:30.792Z,67.25
2018-12-13T18:45:58.413Z,67.41
2018-12-13T18:48:26.027Z,67.38
2018-12-13T18:50:53.759Z,68.23
2018-12-13T18:53:21.405Z,67.53
2018-12-13T18:55:50.154Z,67.27
2018-12-13T18:58:17.781Z,66.91
2018-12-13T19:00:45.520Z,67.63
2018-12-13T19:03:13.027Z,67.32
2018-12-13T19:05:40.878Z,66.78
2018-12-13T19:08:08.479Z,66.35
2018-12-13T19:10:41.781Z,66.13
2018-12-13T19:13:06.010Z,66.25
2018-12-13T19:15:33.717Z,66.94
2018-12-13T19:18:02.027Z,67.46
2018-12-13T19:20:29.662Z,66.33
2018-12-13T19:22:57.265Z,67.01
2018-12-13T19:25:24.770Z,67.21
2018-12-13T19:27:52.344Z,66.83
2018-12-13T19:30:20.323Z,66.69
2018-12-13T19:32:47.914Z,67.04
2018-12-13T19:35:19.353Z,66.41
2018-12-13T19:37:45.434Z,66.86
2018-12-13T19:40:13.428Z,66.72
2018-12-13T19:42:40.941Z,66.32
2018-12-13T19:45:08.681Z,67.32
2018-12-13T19:47:36.310Z,66.31
2018-12-13T19:50:04.055Z,66.67
2018-12-13T19:52:31.753Z,66.41
2018-12-13T19:54:59.302Z,66.82
2018-12-13T19:57:26.854Z,66.46
2018-12-13T19:59:54.921Z,66.73
2018-12-13T20:02:22.653Z,67.14
2018-12-13T20:04:50.286Z,66.22
2018-12-13T20:07:18.261Z,66.85
2018-12-13T20:09:46.272Z,66.32
2018-12-13T20:12:13.777Z,66.23
2018-12-13T20:14:41.525Z,66.17
2018-12-13T20:17:09.060Z,66.44
2018-12-13T20:19:36.963Z,66.60
2018-12-13T20:22:04.653Z,65.98
2018-12-13T20:24:32.183Z,66.09
2018-12-13T20:26:59.757Z,65.87
2018-12-13T20:29:27.485Z,66.58
2018-12-13T20:31:55.166Z,66.50
2018-12-13T20:34:22.686Z,66.44
2018-12-13T20:36:50.199Z,66.75
2018-12-13T20:39:17.731Z,65.52
2018-12-13T20:41:45.238Z,66.51
2018-12-13T20:44:12.765Z,66.19
2018-12-13T20:46:40.285Z,65.61
2018-12-13T20:49:08.056Z,65.67
2018-12-13T20:51:35.564Z,65.74
2018-12-13T20:54:03.096Z,65.52
2018-12-13T20:56:30.683Z,66.69
2018-12-13T20:58:58.210Z,66.40
2018-12-13T21:01:25.833Z,65.92
2018-12-13T21:03:53.409Z,65.67
2018-12-13T21:06:20.995Z,65.88
2018-12-13T21:08:48.549Z,65.87
2018-12-13T21:11:16.112Z,66.49
2018-12-13T21:13:43.683Z,66.55
2018-12-13T21:16:11.224Z,66.70
2018-12-13T21:18:39.326Z,66.43
2018-12-13T21:21:07.107Z,66.72
2018-12-13T21:23:34.933Z,67.00
2018-12-13T21:26:02.697Z,67.41
2018-12-13T21:28:30.221Z,66.13
2018-12-13T21:30:57.850Z,67.30
2018-12-13T21:33:25.385Z,66.49
2018-12-13T21:35:53.011Z,67.05
2018-12-13T21:38:20.619Z,67.53
2018-12-13T21:40:48.142Z,67.31
2018-12-13T21:43:15.687Z,66.33
2018-12-13T21:45:43.468Z,66.80
2018-12-13T21:48:11.509Z,66.52
2018-12-13T21:50:39.228Z,66.76
2018-12-13T21:53:06.876Z,67.23
2018-12-13T21:55:34.681Z,67.12
2018-12-13T21:58:02.480Z,66.64
2018-12-13T22:00:30.078Z,66.84
2018-12-13T22:02:57.752Z,66.76
2018-12-13T22:05:25.594Z,67.54
2018-12-13T22:07:53.621Z,66.79
2018-12-13T22:10:21.280Z,67.16
2018-12-13T22:12:49.118Z,67.03
2018-12-13T22:15:16.867Z,66.89
2018-12-13T22:17:45.334Z,66.59
2018-12-13T22:20:14.179Z,66.68
2018-12-13T22:23:02.010Z,66.88
2018-12-13T22:25:43.671Z,67.60
2018-12-13T22:28:11.501Z,67.58
2018-12-13T22:36:50.265Z,67.52
2018-12-13T22:39:18.514Z,67.58
2018-12-13T22:42:18.986Z,67.50
2018-12-13T22:45:08.063Z,67.63
2018-12-13T22:47:36.209Z,67.72
2018-12-13T22:50:04.065Z,67.30
2018-12-13T22:52:31.682Z,67.81
2018-12-13T22:58:08.578Z,67.08
2018-12-13T23:00:36.386Z,67.22
2018-12-13T23:03:25.621Z,67.96
2018-12-13T23:05:54.665Z,66.93
2018-12-13T23:08:22.251Z,67.95
2018-12-13T23:10:52.688Z,67.39
2018-12-13T23:13:25.588Z,67.09
2018-12-13T23:15:54.806Z,66.99
2018-12-13T23:18:22.591Z,66.86
2018-12-13T23:20:50.683Z,66.91
2018-12-13T23:23:18.800Z,66.91
2018-12-13T23:25:46.335Z,67.33
2018-12-13T23:28:13.884Z,66.99
2018-12-13T23:30:41.572Z,66.90
2018-12-13T23:33:09.422Z,67.21
2018-12-13T23:35:36.931Z,66.74
2018-12-13T23:38:04.522Z,66.69
2018-12-13T23:40:32.114Z,66.09
2018-12-13T23:42:59.846Z,66.91
2018-12-13T23:45:27.778Z,66.06
2018-12-13T23:47:55.393Z,66.17
2018-12-13T23:50:22.949Z,66.65
2018-12-13T23:52:50.467Z,66.87
2018-12-13T23:55:18.009Z,66.93
2018-12-13T23:57:45.568Z,66.68
